Time,TemperatureF,DewpointF,PressureIn,WindDirection,WindDirectionDegrees,WindSpeedMPH,WindSpeedGustMPH,Humidity,HourlyPrecipIn,Conditions,Clouds,dailyrainin,SoftwareType,DateUTC
2013-01-24 00:01:00,3.7,-0.6,30.12,WNW,302,0.0,0.0,82,0.00,,,0.00,Wunderground v.1.15,2013-01-24 05:01:00,
2013-01-24 00:02:00,3.6,-0.7,30.12,WNW,302,0.0,0.0,82,0.00,,,0.00,Wunderground v.1.15,2013-01-24 05:02:00,
2013-01-24 00:03:00,3.6,-0.7,30.12,WNW,302,0.0,0.0,82,0.00,,,0.00,Wunderground v.1.15,2013-01-24 05:03:00,
2013-01-24 00:08:00,3.6,-0.4,30.12,WNW,302,0.0,0.0,83,0.00,,,0.00,Wunderground v.1.15,2013-01-24 05:08:00,
2013-01-24 00:11:00,3.5,-0.5,30.12,WNW,302,0.0,0.0,83,0.00,,,0.00,Wunderground v.1.15,2013-01-24 05:11:00,
2013-01-24 00:17:00,3.4,-0.6,30.13,WNW,302,0.0,0.0,83,0.00,,,0.00,Wunderground v.1.15,2013-01-24 05:17:00,
2013-01-24 00:22:00,3.3,-0.7,30.12,WNW,302,0.0,0.0,83,0.00,,,0.00,Wunderground v.1.15,2013-01-24 05:22:00,
2013-01-24 00:28:00,3.2,-0.5,30.12,WNW,302,0.0,0.0,84,0.00,,,0.00,Wunderground v.1.15,2013-01-24 05:28:00,
2013-01-24 00:33:00,3.0,-0.7,30.12,WNW,302,0.0,0.0,84,0.00,,,0.00,Wunderground v.1.15,2013-01-24 05:33:00,
2013-01-24 00:38:00,2.9,-0.8,30.12,WNW,302,0.0,0.0,84,0.00,,,0.00,Wunderground v.1.15,2013-01-24 05:38:00,
2013-01-24 00:44:00,2.8,-0.9,30.12,WNW,302,0.0,0.0,84,0.00,,,0.00,Wunderground v.1.15,2013-01-24 05:44:00,
2013-01-24 00:49:00,2.8,-0.9,30.12,WNW,302,0.0,0.0,84,0.00,,,0.00,Wunderground v.1.15,2013-01-24 05:49:00,
2013-01-24 00:54:00,2.7,-1.0,30.12,WNW,302,0.0,0.0,84,0.00,,,0.00,Wunderground v.1.15,2013-01-24 05:54:00,
2013-01-24 01:00:00,2.6,-1.1,30.12,WNW,302,0.0,0.0,84,0.00,,,0.00,Wunderground v.1.15,2013-01-24 06:00:00,
2013-01-24 01:06:00,2.4,-1.3,30.12,WNW,302,0.0,0.0,84,0.00,,,0.00,Wunderground v.1.15,2013-01-24 06:06:00,
2013-01-24 01:12:00,2.4,-1.1,30.12,WNW,302,0.0,0.0,85,0.00,,,0.00,Wunderground v.1.15,2013-01-24 06:12:00,
2013-01-24 01:17:00,2.4,-1.1,30.12,WNW,302,0.0,0.0,85,0.00,,,0.00,Wunderground v.1.15,2013-01-24 06:17:00,
2013-01-24 01:23:00,2.3,-1.2,30.12,WNW,302,0.0,0.0,85,0.00,,,0.00,Wunderground v.1.15,2013-01-24 06:23:00,
2013-01-24 01:28:00,2.2,-1.3,30.11,WNW,302,0.0,0.0,85,0.00,,,0.00,Wunderground v.1.15,2013-01-24 06:28:00,
2013-01-24 01:34:00,2.1,-1.4,30.11,WNW,302,0.0,0.0,85,0.00,,,0.00,Wunderground v.1.15,2013-01-24 06:34:00,
2013-01-24 01:39:00,2.1,-1.4,30.11,WNW,302,0.0,0.0,85,0.00,,,0.00,Wunderground v.1.15,2013-01-24 06:39:00,
2013-01-24 01:45:00,2.0,-1.5,30.11,WNW,302,0.0,0.0,85,0.00,,,0.00,Wunderground v.1.15,2013-01-24 06:45:00,
2013-01-24 01:50:00,1.9,-1.6,30.11,WNW,302,0.0,0.0,85,0.00,,,0.00,Wunderground v.1.15,2013-01-24 06:50:00,
2013-01-24 01:55:00,1.9,-1.6,30.11,WNW,302,0.0,0.0,85,0.00,,,0.00,Wunderground v.1.15,2013-01-24 06:55:00,
2013-01-24 02:01:00,1.9,-1.6,30.11,WNW,302,0.0,0.0,85,0.00,,,0.00,Wunderground v.1.15,2013-01-24 07:01:00,
2013-01-24 02:07:00,2.0,-1.2,30.11,WNW,302,0.0,0.0,86,0.00,,,0.00,Wunderground v.1.15,2013-01-24 07:07:00,
2013-01-24 02:12:00,2.0,-1.2,30.11,WNW,302,0.0,0.0,86,0.00,,,0.00,Wunderground v.1.15,2013-01-24 07:12:00,
2013-01-24 02:17:00,1.9,-1.3,30.11,WNW,302,0.0,0.0,86,0.00,,,0.00,Wunderground v.1.15,2013-01-24 07:17:00,
2013-01-24 02:22:00,1.8,-1.4,30.11,WNW,302,0.0,0.0,86,0.00,,,0.00,Wunderground v.1.15,2013-01-24 07:22:00,
2013-01-24 02:28:00,1.7,-1.5,30.11,WNW,302,0.0,0.0,86,0.00,,,0.00,Wunderground v.1.15,2013-01-24 07:28:00,
2013-01-24 02:33:00,1.6,-1.6,30.10,WNW,302,0.0,0.0,86,0.00,,,0.00,Wunderground v.1.15,2013-01-24 07:33:00,
2013-01-24 02:38:00,1.5,-1.7,30.10,WNW,302,0.0,0.0,86,0.00,,,0.00,Wunderground v.1.15,2013-01-24 07:38:00,
2013-01-24 02:43:00,1.4,-1.8,30.10,WNW,302,0.0,0.0,86,0.00,,,0.00,Wunderground v.1.15,2013-01-24 07:43:00,
2013-01-24 02:48:00,1.4,-1.8,30.10,WNW,302,0.0,0.0,86,0.00,,,0.00,Wunderground v.1.15,2013-01-24 07:48:00,
2013-01-24 02:53:00,1.4,-1.8,30.10,WNW,302,0.0,0.0,86,0.00,,,0.00,Wunderground v.1.15,2013-01-24 07:53:00,
2013-01-24 02:58:00,1.5,-1.7,30.10,WNW,302,0.0,0.0,86,0.00,,,0.00,Wunderground v.1.15,2013-01-24 07:58:00,
2013-01-24 03:03:00,1.4,-1.8,30.09,WNW,302,0.0,0.0,86,0.00,,,0.00,Wunderground v.1.15,2013-01-24 08:03:00,
2013-01-24 03:08:00,1.4,-1.8,30.09,WNW,302,0.0,0.0,86,0.00,,,0.00,Wunderground v.1.15,2013-01-24 08:08:00,
2013-01-24 03:13:00,1.3,-1.9,30.09,WNW,302,0.0,0.0,86,0.00,,,0.00,Wunderground v.1.15,2013-01-24 08:13:00,
2013-01-24 03:18:00,1.3,-1.9,30.09,WNW,302,0.0,0.0,86,0.00,,,0.00,Wunderground v.1.15,2013-01-24 08:18:00,
2013-01-24 03:23:00,1.1,-2.1,30.08,WNW,302,0.0,0.0,86,0.00,,,0.00,Wunderground v.1.15,2013-01-24 08:23:00,
2013-01-24 03:28:00,1.0,-2.2,30.08,WNW,302,0.0,0.0,86,0.00,,,0.00,Wunderground v.1.15,2013-01-24 08:28:00,
2013-01-24 03:33:00,0.9,-2.3,30.09,WNW,302,0.0,0.0,86,0.00,,,0.00,Wunderground v.1.15,2013-01-24 08:33:00,
2013-01-24 03:38:00,0.8,-2.4,30.09,WNW,302,0.0,0.0,86,0.00,,,0.00,Wunderground v.1.15,2013-01-24 08:38:00,
2013-01-24 03:43:00,0.7,-2.5,30.09,WNW,302,0.0,0.0,86,0.00,,,0.00,Wunderground v.1.15,2013-01-24 08:43:00,
2013-01-24 03:48:00,0.7,-2.5,30.09,WNW,302,0.0,0.0,86,0.00,,,0.00,Wunderground v.1.15,2013-01-24 08:48:00,
2013-01-24 03:53:00,0.8,-2.2,30.09,WNW,302,0.0,0.0,87,0.00,,,0.00,Wunderground v.1.15,2013-01-24 08:53:00,
2013-01-24 03:58:00,0.8,-2.2,30.09,WNW,302,0.0,0.0,87,0.00,,,0.00,Wunderground v.1.15,2013-01-24 08:58:00,
2013-01-24 04:04:00,0.9,-2.1,30.09,WNW,302,0.0,0.0,87,0.00,,,0.00,Wunderground v.1.15,2013-01-24 09:04:00,
2013-01-24 04:09:00,1.0,-2.2,30.09,WNW,302,0.0,0.0,86,0.00,,,0.00,Wunderground v.1.15,2013-01-24 09:09:00,
2013-01-24 04:14:00,1.0,-2.2,30.09,WNW,302,0.0,0.0,86,0.00,,,0.00,Wunderground v.1.15,2013-01-24 09:14:00,
2013-01-24 04:19:00,1.0,-2.2,30.09,WNW,302,0.0,0.0,86,0.00,,,0.00,Wunderground v.1.15,2013-01-24 09:19:00,
2013-01-24 04:24:00,1.1,-2.1,30.09,WNW,302,0.0,0.0,86,0.00,,,0.00,Wunderground v.1.15,2013-01-24 09:24:00,
2013-01-24 04:29:00,1.0,-2.2,30.10,WNW,302,0.0,0.0,86,0.00,,,0.00,Wunderground v.1.15,2013-01-24 09:29:00,
2013-01-24 04:34:00,1.0,-2.2,30.10,WNW,302,0.0,0.0,86,0.00,,,0.00,Wunderground v.1.15,2013-01-24 09:34:00,
2013-01-24 04:39:00,1.0,-2.0,30.10,WNW,302,0.0,0.0,87,0.00,,,0.00,Wunderground v.1.15,2013-01-24 09:39:00,
2013-01-24 04:45:00,1.1,-1.9,30.10,WNW,302,0.0,0.0,87,0.00,,,0.00,Wunderground v.1.15,2013-01-24 09:45:00,
2013-01-24 04:50:00,1.1,-1.9,30.09,WNW,302,0.0,0.0,87,0.00,,,0.00,Wunderground v.1.15,2013-01-24 09:50:00,
2013-01-24 04:55:00,1.2,-1.8,30.10,WNW,302,0.0,0.0,87,0.00,,,0.00,Wunderground v.1.15,2013-01-24 09:55:00,
2013-01-24 05:00:00,1.4,-1.6,30.10,WNW,302,0.0,0.0,87,0.00,,,0.00,Wunderground v.1.15,2013-01-24 10:00:00,
2013-01-24 05:07:00,1.4,-1.6,30.10,WNW,302,0.0,0.0,87,0.00,,,0.00,Wunderground v.1.15,2013-01-24 10:07:00,
2013-01-24 05:12:00,1.5,-1.5,30.10,WNW,302,0.0,0.0,87,0.00,,,0.00,Wunderground v.1.15,2013-01-24 10:12:00,
2013-01-24 05:17:00,1.7,-1.3,30.10,WNW,295,0.0,0.0,87,0.00,,,0.00,Wunderground v.1.15,2013-01-24 10:17:00,
2013-01-24 05:22:00,2.3,-0.7,30.10,WNW,286,0.0,0.0,87,0.00,,,0.00,Wunderground v.1.15,2013-01-24 10:22:00,
2013-01-24 05:27:00,2.8,-0.4,30.10,West,269,0.0,4.0,86,0.00,,,0.00,Wunderground v.1.15,2013-01-24 10:27:00,
2013-01-24 05:33:00,3.2,-0.5,30.10,West,265,0.0,0.0,84,0.00,,,0.00,Wunderground v.1.15,2013-01-24 10:33:00,
2013-01-24 05:38:00,3.5,-0.5,30.10,West,280,0.0,1.0,83,0.00,,,0.00,Wunderground v.1.15,2013-01-24 10:38:00,
2013-01-24 05:43:00,3.7,-0.6,30.10,West,271,0.0,0.0,82,0.00,,,0.00,Wunderground v.1.15,2013-01-24 10:43:00,
2013-01-24 05:48:00,3.8,-0.7,30.11,West,263,0.0,1.0,81,0.00,,,0.00,Wunderground v.1.15,2013-01-24 10:48:00,
2013-01-24 05:53:00,3.9,-0.9,30.11,West,263,0.0,0.0,80,0.00,,,0.00,Wunderground v.1.15,2013-01-24 10:53:00,
2013-01-24 05:58:00,3.9,-0.9,30.11,West,263,0.0,0.0,80,0.00,,,0.00,Wunderground v.1.15,2013-01-24 10:58:00,
2013-01-24 06:03:00,3.9,-1.2,30.11,West,263,0.0,0.0,79,0.00,,,0.00,Wunderground v.1.15,2013-01-24 11:03:00,
2013-01-24 06:08:00,4.0,-1.1,30.12,West,264,0.0,0.0,79,0.00,,,0.00,Wunderground v.1.15,2013-01-24 11:08:00,
2013-01-24 06:13:00,4.1,-1.0,30.12,West,264,0.0,0.0,79,0.00,,,0.00,Wunderground v.1.15,2013-01-24 11:13:00,
2013-01-24 06:18:00,4.1,-1.0,30.12,West,264,0.0,0.0,79,0.00,,,0.00,Wunderground v.1.15,2013-01-24 11:18:00,
2013-01-24 06:23:00,4.2,-1.1,30.12,West,264,0.0,0.0,78,0.00,,,0.00,Wunderground v.1.15,2013-01-24 11:23:00,
2013-01-24 06:28:00,4.2,-1.1,30.12,West,264,0.0,0.0,78,0.00,,,0.00,Wunderground v.1.15,2013-01-24 11:28:00,
2013-01-24 06:33:00,4.2,-0.9,30.12,West,264,0.0,0.0,79,0.00,,,0.00,Wunderground v.1.15,2013-01-24 11:33:00,
2013-01-24 06:38:00,4.1,-0.7,30.12,West,263,0.0,0.0,80,0.00,,,0.00,Wunderground v.1.15,2013-01-24 11:38:00,
2013-01-24 06:43:00,3.8,-1.0,30.12,West,263,0.0,0.0,80,0.00,,,0.00,Wunderground v.1.15,2013-01-24 11:43:00,
2013-01-24 06:48:00,3.6,-1.2,30.12,West,264,0.0,0.0,80,0.00,,,0.00,Wunderground v.1.15,2013-01-24 11:48:00,
2013-01-24 06:53:00,3.5,-1.0,30.12,West,263,0.0,0.0,81,0.00,,,0.00,Wunderground v.1.15,2013-01-24 11:53:00,
2013-01-24 06:58:00,3.5,-1.0,30.12,West,263,0.0,0.0,81,0.00,,,0.00,Wunderground v.1.15,2013-01-24 11:58:00,
2013-01-24 07:03:00,3.7,-0.6,30.12,West,261,0.0,0.0,82,0.00,,,0.00,Wunderground v.1.15,2013-01-24 12:03:00,
2013-01-24 07:08:00,3.9,-0.6,30.12,West,262,0.0,0.0,81,0.00,,,0.00,Wunderground v.1.15,2013-01-24 12:08:00,
2013-01-24 07:13:00,4.4,-0.1,30.12,West,265,0.0,0.0,81,0.00,,,0.00,Wunderground v.1.15,2013-01-24 12:13:00,
2013-01-24 07:18:00,4.7,-0.1,30.12,West,265,0.0,0.0,80,0.00,,,0.00,Wunderground v.1.15,2013-01-24 12:18:00,
2013-01-24 07:23:00,5.1,0.0,30.13,West,266,0.0,0.0,79,0.00,,,0.00,Wunderground v.1.15,2013-01-24 12:23:00,
2013-01-24 07:28:00,5.3,0.2,30.13,West,266,0.0,0.0,79,0.00,,,0.00,Wunderground v.1.15,2013-01-24 12:28:00,
2013-01-24 07:33:00,5.4,0.0,30.13,West,266,0.0,0.0,78,0.00,,,0.00,Wunderground v.1.15,2013-01-24 12:33:00,
2013-01-24 07:38:00,5.5,0.1,30.13,West,267,0.0,0.0,78,0.00,,,0.00,Wunderground v.1.15,2013-01-24 12:38:00,
2013-01-24 07:43:00,5.7,0.0,30.13,West,267,0.0,0.0,77,0.00,,,0.00,Wunderground v.1.15,2013-01-24 12:43:00,
2013-01-24 07:48:00,5.8,0.1,30.13,West,267,0.0,0.0,77,0.00,,,0.00,Wunderground v.1.15,2013-01-24 12:48:00,
2013-01-24 07:53:00,6.0,0.3,30.13,West,267,0.0,0.0,77,0.00,,,0.00,Wunderground v.1.15,2013-01-24 12:53:00,
2013-01-24 07:58:00,6.3,0.6,30.14,West,268,0.0,0.0,77,0.00,,,0.00,Wunderground v.1.15,2013-01-24 12:58:00,
2013-01-24 08:03:00,6.7,1.0,30.13,West,268,0.0,0.0,77,0.00,,,0.00,Wunderground v.1.15,2013-01-24 13:03:00,
2013-01-24 08:08:00,7.3,1.3,30.14,NW,316,0.0,2.0,76,0.00,,,0.00,Wunderground v.1.15,2013-01-24 13:08:00,
2013-01-24 08:13:00,7.9,1.3,30.13,WNW,282,0.0,6.0,74,0.00,,,0.00,Wunderground v.1.15,2013-01-24 13:13:00,
2013-01-24 08:18:00,8.5,1.9,30.13,WNW,283,0.0,6.0,74,0.00,,,0.00,Wunderground v.1.15,2013-01-24 13:18:00,
2013-01-24 08:23:00,9.0,2.1,30.13,WSW,248,0.0,5.0,73,0.00,,,0.00,Wunderground v.1.15,2013-01-24 13:23:00,
2013-01-24 08:28:00,9.3,2.1,30.14,NNW,336,2.0,5.0,72,0.00,,,0.00,Wunderground v.1.15,2013-01-24 13:28:00,
2013-01-24 08:33:00,9.6,2.1,30.14,NNW,329,2.0,3.0,71,0.00,,,0.00,Wunderground v.1.15,2013-01-24 13:33:00,
2013-01-24 08:38:00,9.9,2.4,30.14,North,355,0.0,3.0,71,0.00,,,0.00,Wunderground v.1.15,2013-01-24 13:38:00,
2013-01-24 08:43:00,10.1,2.6,30.14,WNW,299,0.0,4.0,71,0.00,,,0.00,Wunderground v.1.15,2013-01-24 13:43:00,
2013-01-24 08:48:00,10.2,2.4,30.14,NNW,343,0.0,4.0,70,0.00,,,0.00,Wunderground v.1.15,2013-01-24 13:48:00,
2013-01-24 08:53:00,10.3,2.4,30.14,NW,305,0.0,5.0,70,0.00,,,0.00,Wunderground v.1.15,2013-01-24 13:53:00,
2013-01-24 08:58:00,10.6,2.7,30.14,NW,317,0.0,5.0,70,0.00,,,0.00,Wunderground v.1.15,2013-01-24 13:58:00,
2013-01-24 09:03:00,10.9,3.0,30.14,NNW,348,5.0,9.0,70,0.00,,,0.00,Wunderground v.1.15,2013-01-24 14:03:00,
2013-01-24 09:08:00,11.0,2.5,30.14,NW,311,0.0,9.0,68,0.00,,,0.00,Wunderground v.1.15,2013-01-24 14:08:00,
2013-01-24 09:13:00,11.0,2.5,30.14,West,273,1.0,7.0,68,0.00,,,0.00,Wunderground v.1.15,2013-01-24 14:13:00,
2013-01-24 09:18:00,11.0,2.5,30.15,NW,307,7.0,14.0,68,0.00,,,0.00,Wunderground v.1.15,2013-01-24 14:18:00,
2013-01-24 09:23:00,11.0,2.5,30.15,NW,317,4.0,10.0,68,0.00,,,0.00,Wunderground v.1.15,2013-01-24 14:23:00,
2013-01-24 09:28:00,11.1,2.6,30.15,West,271,0.0,11.0,68,0.00,,,0.00,Wunderground v.1.15,2013-01-24 14:28:00,
2013-01-24 09:33:00,11.5,3.0,30.15,West,267,7.0,12.0,68,0.00,,,0.00,Wunderground v.1.15,2013-01-24 14:33:00,
2013-01-24 09:38:00,11.7,2.8,30.15,NW,322,2.0,15.0,67,0.00,,,0.00,Wunderground v.1.15,2013-01-24 14:38:00,
2013-01-24 09:43:00,11.9,3.0,30.15,NW,323,0.0,10.0,67,0.00,,,0.00,Wunderground v.1.15,2013-01-24 14:43:00,
2013-01-24 09:48:00,12.1,2.9,30.15,West,275,0.0,10.0,66,0.00,,,0.00,Wunderground v.1.15,2013-01-24 14:48:00,
2013-01-24 09:53:00,12.3,3.1,30.15,WNW,288,11.0,12.0,66,0.00,,,0.00,Wunderground v.1.15,2013-01-24 14:53:00,
2013-01-24 09:58:00,12.5,3.0,30.15,SW,220,4.0,12.0,65,0.00,,,0.00,Wunderground v.1.15,2013-01-24 14:58:00,
2013-01-24 10:04:00,12.5,3.0,30.15,WSW,257,3.0,9.0,65,0.00,,,0.00,Wunderground v.1.15,2013-01-24 15:04:00,
2013-01-24 10:09:00,12.7,2.8,30.15,West,275,0.0,14.0,64,0.00,,,0.00,Wunderground v.1.15,2013-01-24 15:09:00,
2013-01-24 10:14:00,13.1,3.2,30.15,SW,234,9.0,12.0,64,0.00,,,0.00,Wunderground v.1.15,2013-01-24 15:14:00,
2013-01-24 10:19:00,13.3,3.0,30.15,NW,311,6.0,14.0,63,0.00,,,0.00,Wunderground v.1.15,2013-01-24 15:19:00,
2013-01-24 10:24:00,13.5,3.2,30.15,WNW,284,4.0,15.0,63,0.00,,,0.00,Wunderground v.1.15,2013-01-24 15:24:00,
2013-01-24 10:29:00,13.6,3.0,30.15,West,279,3.0,15.0,62,0.00,,,0.00,Wunderground v.1.15,2013-01-24 15:29:00,
2013-01-24 10:34:00,13.8,3.2,30.15,WNW,302,0.0,15.0,62,0.00,,,0.00,Wunderground v.1.15,2013-01-24 15:34:00,
2013-01-24 10:39:00,14.1,3.5,30.15,West,269,4.0,15.0,62,0.00,,,0.00,Wunderground v.1.15,2013-01-24 15:39:00,
2013-01-24 10:44:00,14.4,3.7,30.15,SW,215,4.0,18.0,62,0.00,,,0.00,Wunderground v.1.15,2013-01-24 15:44:00,
2013-01-24 10:49:00,14.4,3.4,30.15,WNW,296,25.0,25.0,61,0.00,,,0.00,Wunderground v.1.15,2013-01-24 15:49:00,
2013-01-24 10:54:00,14.2,2.8,30.15,NNE,18,6.0,16.0,60,0.00,,,0.00,Wunderground v.1.15,2013-01-24 15:54:00,
2013-01-24 10:59:00,14.3,2.9,30.15,West,263,9.0,19.0,60,0.00,,,0.00,Wunderground v.1.15,2013-01-24 15:59:00,
2013-01-24 11:04:00,14.5,3.1,30.15,WNW,283,0.0,17.0,60,0.00,,,0.00,Wunderground v.1.15,2013-01-24 16:04:00,
2013-01-24 11:09:00,14.7,2.9,30.15,West,277,6.0,17.0,59,0.00,,,0.00,Wunderground v.1.15,2013-01-24 16:09:00,
2013-01-24 11:14:00,14.8,3.0,30.14,WSW,257,7.0,19.0,59,0.00,,,0.00,Wunderground v.1.15,2013-01-24 16:14:00,
2013-01-24 11:19:00,15.1,3.0,30.14,SSE,149,0.0,19.0,58,0.00,,,0.00,Wunderground v.1.15,2013-01-24 16:19:00,
2013-01-24 11:24:00,15.1,3.0,30.14,WSW,252,2.0,21.0,58,0.00,,,0.00,Wunderground v.1.15,2013-01-24 16:24:00,
2013-01-24 11:29:00,15.5,3.3,30.13,NW,306,17.0,21.0,58,0.00,,,0.00,Wunderground v.1.15,2013-01-24 16:29:00,
2013-01-24 11:34:00,15.7,3.5,30.13,WNW,294,1.0,20.0,58,0.00,,,0.00,Wunderground v.1.15,2013-01-24 16:34:00,
2013-01-24 11:39:00,15.8,3.2,30.13,West,261,9.0,20.0,57,0.00,,,0.00,Wunderground v.1.15,2013-01-24 16:39:00,
2013-01-24 11:44:00,15.7,2.8,30.13,NW,317,2.0,11.0,56,0.00,,,0.00,Wunderground v.1.15,2013-01-24 16:44:00,
2013-01-24 11:49:00,15.8,3.2,30.13,WSW,250,1.0,17.0,57,0.00,,,0.00,Wunderground v.1.15,2013-01-24 16:49:00,
2013-01-24 11:54:00,16.1,3.5,30.12,West,259,5.0,17.0,57,0.00,,,0.00,Wunderground v.1.15,2013-01-24 16:54:00,
2013-01-24 11:59:00,16.3,3.7,30.13,NW,304,2.0,17.0,57,0.00,,,0.00,Wunderground v.1.15,2013-01-24 16:59:00,
2013-01-24 12:04:00,16.6,3.6,30.13,WNW,284,7.0,17.0,56,0.00,,,0.00,Wunderground v.1.15,2013-01-24 17:04:00,
2013-01-24 12:09:00,16.6,3.2,30.13,NW,306,3.0,5.0,55,0.00,,,0.00,Wunderground v.1.15,2013-01-24 17:09:00,
2013-01-24 12:15:00,16.7,3.3,30.13,West,280,2.0,19.0,55,0.00,,,0.00,Wunderground v.1.15,2013-01-24 17:15:00,
2013-01-24 12:20:00,16.8,3.0,30.12,NNE,25,6.0,6.0,54,0.00,,,0.00,Wunderground v.1.15,2013-01-24 17:20:00,
2013-01-24 12:25:00,17.1,3.3,30.13,North,9,3.0,10.0,54,0.00,,,0.00,Wunderground v.1.15,2013-01-24 17:25:00,
2013-01-24 12:30:00,17.5,3.7,30.13,NW,323,3.0,4.0,54,0.00,,,0.00,Wunderground v.1.15,2013-01-24 17:30:00,
2013-01-24 12:35:00,17.9,3.6,30.13,WNW,283,3.0,20.0,53,0.00,,,0.00,Wunderground v.1.15,2013-01-24 17:35:00,
2013-01-24 12:40:00,17.7,3.4,30.13,NNE,16,10.0,10.0,53,0.00,,,0.00,Wunderground v.1.15,2013-01-24 17:40:00,
2013-01-24 12:45:00,17.9,3.6,30.13,SW,218,12.0,12.0,53,0.00,,,0.00,Wunderground v.1.15,2013-01-24 17:45:00,
2013-01-24 12:50:00,17.7,3.0,30.13,West,280,6.0,11.0,52,0.00,,,0.00,Wunderground v.1.15,2013-01-24 17:50:00,
2013-01-24 12:55:00,17.7,3.0,30.13,WNW,301,5.0,17.0,52,0.00,,,0.00,Wunderground v.1.15,2013-01-24 17:55:00,
2013-01-24 13:00:00,17.6,2.9,30.13,North,360,4.0,10.0,52,0.00,,,0.00,Wunderground v.1.15,2013-01-24 18:00:00,
2013-01-24 13:05:00,17.8,3.1,30.14,NW,311,3.0,17.0,52,0.00,,,0.00,Wunderground v.1.15,2013-01-24 18:05:00,
2013-01-24 13:10:00,17.7,3.0,30.13,West,265,5.0,6.0,52,0.00,,,0.00,Wunderground v.1.15,2013-01-24 18:10:00,
2013-01-24 13:15:00,18.2,3.5,30.13,North,11,0.0,15.0,52,0.00,,,0.00,Wunderground v.1.15,2013-01-24 18:15:00,
2013-01-24 13:20:00,18.4,3.3,30.13,NNW,333,2.0,15.0,51,0.00,,,0.00,Wunderground v.1.15,2013-01-24 18:20:00,
2013-01-24 13:25:00,18.5,3.4,30.13,WNW,284,2.0,21.0,51,0.00,,,0.00,Wunderground v.1.15,2013-01-24 18:25:00,
2013-01-24 13:30:00,18.7,3.5,30.13,WNW,285,12.0,13.0,51,0.00,,,0.00,Wunderground v.1.15,2013-01-24 18:30:00,
2013-01-24 13:35:00,18.8,3.6,30.13,WNW,301,12.0,14.0,51,0.00,,,0.00,Wunderground v.1.15,2013-01-24 18:35:00,
2013-01-24 13:40:00,18.9,3.7,30.13,West,279,6.0,6.0,51,0.00,,,0.00,Wunderground v.1.15,2013-01-24 18:40:00,
2013-01-24 13:45:00,19.1,3.9,30.13,SW,219,1.0,11.0,51,0.00,,,0.00,Wunderground v.1.15,2013-01-24 18:45:00,
2013-01-24 13:50:00,19.3,3.2,30.13,West,277,6.0,6.0,49,0.00,,,0.00,Wunderground v.1.15,2013-01-24 18:50:00,
2013-01-24 13:55:00,19.3,3.7,30.13,North,5,15.0,15.0,50,0.00,,,0.00,Wunderground v.1.15,2013-01-24 18:55:00,
2013-01-24 14:00:00,19.1,3.0,30.13,West,268,5.0,8.0,49,0.00,,,0.00,Wunderground v.1.15,2013-01-24 19:00:00,
2013-01-24 14:06:00,19.3,2.8,30.13,West,278,2.0,16.0,48,0.00,,,0.00,Wunderground v.1.15,2013-01-24 19:06:00,
2013-01-24 14:11:00,19.4,2.4,30.14,WSW,245,3.0,11.0,47,0.00,,,0.00,Wunderground v.1.15,2013-01-24 19:11:00,
2013-01-24 14:16:00,19.4,4.2,30.14,NW,325,4.0,17.0,51,0.00,,,0.00,Wunderground v.1.15,2013-01-24 19:16:00,
2013-01-24 14:21:00,19.5,2.5,30.14,SW,229,7.0,18.0,47,0.00,,,0.00,Wunderground v.1.15,2013-01-24 19:21:00,
2013-01-24 14:26:00,19.7,3.2,30.14,SSW,206,0.0,18.0,48,0.00,,,0.00,Wunderground v.1.15,2013-01-24 19:26:00,
2013-01-24 14:31:00,19.9,2.9,30.15,NW,306,4.0,10.0,47,0.00,,,0.00,Wunderground v.1.15,2013-01-24 19:31:00,
2013-01-24 14:36:00,20.1,3.1,30.15,West,259,0.0,11.0,47,0.00,,,0.00,Wunderground v.1.15,2013-01-24 19:36:00,
2013-01-24 14:41:00,20.2,3.2,30.15,ENE,68,4.0,10.0,47,0.00,,,0.00,Wunderground v.1.15,2013-01-24 19:41:00,
2013-01-24 14:46:00,20.2,2.7,30.15,WNW,286,6.0,10.0,46,0.00,,,0.00,Wunderground v.1.15,2013-01-24 19:46:00,
2013-01-24 14:51:00,20.4,3.3,30.14,WNW,285,3.0,17.0,47,0.00,,,0.00,Wunderground v.1.15,2013-01-24 19:51:00,
2013-01-24 14:57:00,20.4,2.9,30.15,WSW,251,4.0,20.0,46,0.00,,,0.00,Wunderground v.1.15,2013-01-24 19:57:00,
2013-01-24 15:02:00,20.5,2.5,30.15,WSW,253,4.0,20.0,45,0.00,,,0.00,Wunderground v.1.15,2013-01-24 20:02:00,
2013-01-24 15:07:00,20.4,2.4,30.15,North,355,7.0,20.0,45,0.00,,,0.00,Wunderground v.1.15,2013-01-24 20:07:00,
2013-01-24 15:12:00,20.4,1.9,30.15,WSW,246,5.0,6.0,44,0.00,,,0.00,Wunderground v.1.15,2013-01-24 20:12:00,
2013-01-24 15:17:00,20.6,2.6,30.15,North,355,0.0,10.0,45,0.00,,,0.00,Wunderground v.1.15,2013-01-24 20:17:00,
2013-01-24 15:22:00,20.6,2.1,30.15,West,269,4.0,16.0,44,0.00,,,0.00,Wunderground v.1.15,2013-01-24 20:22:00,
2013-01-24 15:27:00,20.6,1.6,30.15,WSW,255,1.0,21.0,43,0.00,,,0.00,Wunderground v.1.15,2013-01-24 20:27:00,
2013-01-24 15:32:00,20.4,1.4,30.15,WNW,286,0.0,14.0,43,0.00,,,0.00,Wunderground v.1.15,2013-01-24 20:32:00,
2013-01-24 15:37:00,20.4,1.9,30.15,WSW,240,3.0,15.0,44,0.00,,,0.00,Wunderground v.1.15,2013-01-24 20:37:00,
2013-01-24 15:42:00,20.4,1.4,30.15,South,185,4.0,10.0,43,0.00,,,0.00,Wunderground v.1.15,2013-01-24 20:42:00,
2013-01-24 15:47:00,20.4,1.4,30.15,WSW,248,0.0,16.0,43,0.00,,,0.00,Wunderground v.1.15,2013-01-24 20:47:00,
2013-01-24 15:52:00,20.4,1.4,30.15,West,261,1.0,16.0,43,0.00,,,0.00,Wunderground v.1.15,2013-01-24 20:52:00,
2013-01-24 15:57:00,20.5,2.0,30.15,West,280,3.0,16.0,44,0.00,,,0.00,Wunderground v.1.15,2013-01-24 20:57:00,
2013-01-24 16:02:00,20.3,1.8,30.16,SW,215,0.0,12.0,44,0.00,,,0.00,Wunderground v.1.15,2013-01-24 21:02:00,
2013-01-24 16:07:00,20.1,1.6,30.16,WNW,290,4.0,12.0,44,0.00,,,0.00,Wunderground v.1.15,2013-01-24 21:07:00,
2013-01-24 16:12:00,20.0,1.5,30.16,WNW,286,6.0,10.0,44,0.00,,,0.00,Wunderground v.1.15,2013-01-24 21:12:00,
2013-01-24 16:17:00,20.0,1.5,30.17,West,259,1.0,10.0,44,0.00,,,0.00,Wunderground v.1.15,2013-01-24 21:17:00,
2013-01-24 16:22:00,19.9,1.9,30.17,WSW,255,6.0,13.0,45,0.00,,,0.00,Wunderground v.1.15,2013-01-24 21:22:00,
2013-01-24 16:27:00,19.7,1.8,30.17,West,271,5.0,13.0,45,0.00,,,0.00,Wunderground v.1.15,2013-01-24 21:27:00,
2013-01-24 16:32:00,19.6,1.7,30.17,WSW,248,1.0,6.0,45,0.00,,,0.00,Wunderground v.1.15,2013-01-24 21:32:00,
2013-01-24 16:37:00,19.3,1.4,30.17,West,281,0.0,14.0,45,0.00,,,0.00,Wunderground v.1.15,2013-01-24 21:37:00,
2013-01-24 16:42:00,19.1,1.7,30.17,WSW,257,5.0,9.0,46,0.00,,,0.00,Wunderground v.1.15,2013-01-24 21:42:00,
2013-01-24 16:47:00,18.9,1.5,30.18,West,271,0.0,13.0,46,0.00,,,0.00,Wunderground v.1.15,2013-01-24 21:47:00,
2013-01-24 16:52:00,18.9,1.5,30.18,WSW,250,1.0,11.0,46,0.00,,,0.00,Wunderground v.1.15,2013-01-24 21:52:00,
2013-01-24 16:57:00,18.8,1.4,30.18,West,280,2.0,11.0,46,0.00,,,0.00,Wunderground v.1.15,2013-01-24 21:57:00,
2013-01-24 17:02:00,18.6,2.1,30.18,West,272,3.0,5.0,48,0.00,,,0.00,Wunderground v.1.15,2013-01-24 22:02:00,
2013-01-24 17:07:00,18.5,1.6,30.18,West,259,0.0,5.0,47,0.00,,,0.00,Wunderground v.1.15,2013-01-24 22:07:00,
2013-01-24 17:12:00,18.3,1.9,30.18,NW,309,2.0,3.0,48,0.00,,,0.00,Wunderground v.1.15,2013-01-24 22:12:00,
2013-01-24 17:17:00,18.1,1.7,30.19,NW,310,0.0,4.0,48,0.00,,,0.00,Wunderground v.1.15,2013-01-24 22:17:00,
2013-01-24 17:22:00,18.0,1.6,30.19,WNW,288,0.0,2.0,48,0.00,,,0.00,Wunderground v.1.15,2013-01-24 22:22:00,
2013-01-24 17:27:00,17.9,1.5,30.20,SW,218,1.0,5.0,48,0.00,,,0.00,Wunderground v.1.15,2013-01-24 22:27:00,
2013-01-24 17:32:00,17.8,1.4,30.20,WNW,290,3.0,4.0,48,0.00,,,0.00,Wunderground v.1.15,2013-01-24 22:32:00,
2013-01-24 17:37:00,17.7,1.3,30.20,West,265,0.0,4.0,48,0.00,,,0.00,Wunderground v.1.15,2013-01-24 22:37:00,
2013-01-24 17:42:00,17.5,1.1,30.20,West,269,0.0,6.0,48,0.00,,,0.00,Wunderground v.1.15,2013-01-24 22:42:00,
2013-01-24 17:47:00,17.4,1.0,30.21,West,271,1.0,6.0,48,0.00,,,0.00,Wunderground v.1.15,2013-01-24 22:47:00,
2013-01-24 17:52:00,17.3,0.9,30.21,WSW,252,2.0,2.0,48,0.00,,,0.00,Wunderground v.1.15,2013-01-24 22:52:00,
2013-01-24 17:57:00,17.3,0.5,30.21,WSW,243,2.0,10.0,47,0.00,,,0.00,Wunderground v.1.15,2013-01-24 22:57:00,
2013-01-24 18:02:00,17.3,0.5,30.22,West,261,0.0,7.0,47,0.00,,,0.00,Wunderground v.1.15,2013-01-24 23:02:00,
2013-01-24 18:07:00,17.3,0.9,30.22,West,265,0.0,7.0,48,0.00,,,0.00,Wunderground v.1.15,2013-01-24 23:07:00,
2013-01-24 18:12:00,17.1,0.7,30.22,West,273,0.0,2.0,48,0.00,,,0.00,Wunderground v.1.15,2013-01-24 23:12:00,
2013-01-24 18:17:00,16.8,0.5,30.22,North,360,2.0,4.0,48,0.00,,,0.00,Wunderground v.1.15,2013-01-24 23:17:00,
2013-01-24 18:22:00,16.6,0.3,30.22,West,278,1.0,4.0,48,0.00,,,0.00,Wunderground v.1.15,2013-01-24 23:22:00,
2013-01-24 18:27:00,16.5,0.2,30.22,West,273,1.0,7.0,48,0.00,,,0.00,Wunderground v.1.15,2013-01-24 23:27:00,
2013-01-24 18:32:00,16.4,0.1,30.22,WNW,291,4.0,13.0,48,0.00,,,0.00,Wunderground v.1.15,2013-01-24 23:32:00,
2013-01-24 18:37:00,16.3,0.0,30.22,West,263,12.0,13.0,48,0.00,,,0.00,Wunderground v.1.15,2013-01-24 23:37:00,
2013-01-24 18:42:00,16.1,0.3,30.22,West,265,0.0,3.0,49,0.00,,,0.00,Wunderground v.1.15,2013-01-24 23:42:00,
2013-01-24 18:47:00,16.0,0.2,30.23,West,263,0.0,9.0,49,0.00,,,0.00,Wunderground v.1.15,2013-01-24 23:47:00,
2013-01-24 18:52:00,15.8,0.4,30.23,WSW,253,1.0,4.0,50,0.00,,,0.00,Wunderground v.1.15,2013-01-24 23:52:00,
2013-01-24 18:58:00,15.7,0.3,30.23,West,271,3.0,10.0,50,0.00,,,0.00,Wunderground v.1.15,2013-01-24 23:58:00,
2013-01-24 19:02:00,15.7,0.3,30.23,WSW,237,3.0,9.0,50,0.00,,,0.00,Wunderground v.1.15,2013-01-25 00:02:00,
2013-01-24 19:08:00,15.7,0.3,30.23,SW,236,0.0,12.0,50,0.00,,,0.00,Wunderground v.1.15,2013-01-25 00:08:00,
2013-01-24 19:12:00,15.5,0.6,30.23,WSW,254,0.0,3.0,51,0.00,,,0.00,Wunderground v.1.15,2013-01-25 00:12:00,
2013-01-24 19:18:00,15.3,0.4,30.23,WSW,246,0.0,4.0,51,0.00,,,0.00,Wunderground v.1.15,2013-01-25 00:18:00,
2013-01-24 19:22:00,15.3,0.8,30.24,WSW,248,0.0,4.0,52,0.00,,,0.00,Wunderground v.1.15,2013-01-25 00:22:00,
2013-01-24 19:28:00,15.2,1.1,30.24,SW,236,0.0,5.0,53,0.00,,,0.00,Wunderground v.1.15,2013-01-25 00:28:00,
2013-01-24 19:33:00,15.1,1.4,30.24,SW,226,2.0,3.0,54,0.00,,,0.00,Wunderground v.1.15,2013-01-25 00:33:00,
2013-01-24 19:38:00,15.1,1.4,30.24,WSW,250,0.0,6.0,54,0.00,,,0.00,Wunderground v.1.15,2013-01-25 00:38:00,
2013-01-24 19:43:00,15.1,1.0,30.25,SW,221,0.0,9.0,53,0.00,,,0.00,Wunderground v.1.15,2013-01-25 00:43:00,
2013-01-24 19:48:00,15.1,1.4,30.25,SW,230,2.0,9.0,54,0.00,,,0.00,Wunderground v.1.15,2013-01-25 00:48:00,
2013-01-24 19:53:00,15.0,1.3,30.25,West,260,0.0,5.0,54,0.00,,,0.00,Wunderground v.1.15,2013-01-25 00:53:00,
2013-01-24 19:58:00,15.0,0.9,30.25,West,265,3.0,7.0,53,0.00,,,0.00,Wunderground v.1.15,2013-01-25 00:58:00,
2013-01-24 20:03:00,15.0,0.9,30.24,WSW,243,0.0,2.0,53,0.00,,,0.00,Wunderground v.1.15,2013-01-25 01:03:00,
2013-01-24 20:08:00,14.8,0.7,30.24,West,259,0.0,3.0,53,0.00,,,0.00,Wunderground v.1.15,2013-01-25 01:08:00,
2013-01-24 20:13:00,14.7,1.0,30.24,West,279,2.0,10.0,54,0.00,,,0.00,Wunderground v.1.15,2013-01-25 01:13:00,
2013-01-24 20:18:00,14.6,0.9,30.24,WSW,241,5.0,10.0,54,0.00,,,0.00,Wunderground v.1.15,2013-01-25 01:18:00,
2013-01-24 20:23:00,14.7,0.6,30.24,West,261,0.0,10.0,53,0.00,,,0.00,Wunderground v.1.15,2013-01-25 01:23:00,
2013-01-24 20:28:00,14.7,1.0,30.24,WSW,256,1.0,10.0,54,0.00,,,0.00,Wunderground v.1.15,2013-01-25 01:28:00,
2013-01-24 20:33:00,14.6,0.9,30.24,WSW,250,0.0,2.0,54,0.00,,,0.00,Wunderground v.1.15,2013-01-25 01:33:00,
2013-01-24 20:38:00,14.6,0.5,30.24,West,276,2.0,6.0,53,0.00,,,0.00,Wunderground v.1.15,2013-01-25 01:38:00,
2013-01-24 20:43:00,14.6,0.5,30.24,WNW,284,6.0,7.0,53,0.00,,,0.00,Wunderground v.1.15,2013-01-25 01:43:00,
2013-01-24 20:48:00,14.6,0.5,30.24,West,275,3.0,7.0,53,0.00,,,0.00,Wunderground v.1.15,2013-01-25 01:48:00,
2013-01-24 20:53:00,14.6,0.5,30.24,WSW,247,0.0,8.0,53,0.00,,,0.00,Wunderground v.1.15,2013-01-25 01:53:00,
2013-01-24 20:58:00,14.6,0.9,30.25,West,263,0.0,8.0,54,0.00,,,0.00,Wunderground v.1.15,2013-01-25 01:58:00,
2013-01-24 21:03:00,14.6,0.9,30.24,West,264,0.0,3.0,54,0.00,,,0.00,Wunderground v.1.15,2013-01-25 02:03:00,
2013-01-24 21:08:00,14.6,0.9,30.25,NW,307,0.0,7.0,54,0.00,,,0.00,Wunderground v.1.15,2013-01-25 02:08:00,
2013-01-24 21:13:00,14.6,0.9,30.25,West,271,0.0,3.0,54,0.00,,,0.00,Wunderground v.1.15,2013-01-25 02:13:00,
2013-01-24 21:18:00,14.4,1.2,30.25,WSW,256,0.0,7.0,55,0.00,,,0.00,Wunderground v.1.15,2013-01-25 02:18:00,
2013-01-24 21:23:00,14.3,1.1,30.25,West,260,0.0,0.0,55,0.00,,,0.00,Wunderground v.1.15,2013-01-25 02:23:00,
2013-01-24 21:28:00,14.1,1.3,30.25,West,267,0.0,0.0,56,0.00,,,0.00,Wunderground v.1.15,2013-01-25 02:28:00,
2013-01-24 21:33:00,14.1,1.3,30.25,West,278,0.0,4.0,56,0.00,,,0.00,Wunderground v.1.15,2013-01-25 02:33:00,
2013-01-24 21:38:00,14.2,1.7,30.25,West,280,0.0,7.0,57,0.00,,,0.00,Wunderground v.1.15,2013-01-25 02:38:00,
2013-01-24 21:43:00,14.1,1.6,30.25,West,272,0.0,2.0,57,0.00,,,0.00,Wunderground v.1.15,2013-01-25 02:43:00,
2013-01-24 21:48:00,14.0,1.5,30.25,West,280,0.0,2.0,57,0.00,,,0.00,Wunderground v.1.15,2013-01-25 02:48:00,
2013-01-24 21:53:00,14.0,1.9,30.26,West,279,1.0,5.0,58,0.00,,,0.00,Wunderground v.1.15,2013-01-25 02:53:00,
2013-01-24 21:58:00,14.1,2.0,30.26,WNW,302,0.0,5.0,58,0.00,,,0.00,Wunderground v.1.15,2013-01-25 02:58:00,
2013-01-24 22:03:00,14.0,2.3,30.26,West,270,0.0,1.0,59,0.00,,,0.00,Wunderground v.1.15,2013-01-25 03:03:00,
2013-01-24 22:08:00,14.0,2.3,30.26,NW,312,0.0,12.0,59,0.00,,,0.00,Wunderground v.1.15,2013-01-25 03:08:00,
2013-01-24 22:13:00,14.1,2.4,30.26,WNW,290,0.0,4.0,59,0.00,,,0.00,Wunderground v.1.15,2013-01-25 03:13:00,
2013-01-24 22:18:00,14.0,2.3,30.26,WNW,288,0.0,6.0,59,0.00,,,0.00,Wunderground v.1.15,2013-01-25 03:18:00,
2013-01-24 22:23:00,13.9,2.6,30.26,WSW,257,3.0,5.0,60,0.00,,,0.00,Wunderground v.1.15,2013-01-25 03:23:00,
2013-01-24 22:28:00,13.9,2.9,30.26,West,279,11.0,11.0,61,0.00,,,0.00,Wunderground v.1.15,2013-01-25 03:28:00,
2013-01-24 22:33:00,14.0,3.0,30.26,West,270,0.0,6.0,61,0.00,,,0.00,Wunderground v.1.15,2013-01-25 03:33:00,
2013-01-24 22:38:00,14.0,3.4,30.26,WNW,285,2.0,8.0,62,0.00,,,0.00,Wunderground v.1.15,2013-01-25 03:38:00,
2013-01-24 22:43:00,14.0,3.4,30.26,West,275,0.0,6.0,62,0.00,,,0.00,Wunderground v.1.15,2013-01-25 03:43:00,
2013-01-24 22:48:00,14.1,3.8,30.27,West,281,0.0,13.0,63,0.00,,,0.00,Wunderground v.1.15,2013-01-25 03:48:00,
2013-01-24 22:53:00,14.1,3.8,30.27,West,266,4.0,6.0,63,0.00,,,0.00,Wunderground v.1.15,2013-01-25 03:53:00,
2013-01-24 22:58:00,14.1,3.8,30.27,WSW,245,0.0,14.0,63,0.00,,,0.00,Wunderground v.1.15,2013-01-25 03:58:00,
2013-01-24 23:03:00,14.0,3.7,30.27,West,281,1.0,4.0,63,0.00,,,0.00,Wunderground v.1.15,2013-01-25 04:03:00,
2013-01-24 23:08:00,13.9,4.0,30.26,WSW,240,2.0,7.0,64,0.00,,,0.00,Wunderground v.1.15,2013-01-25 04:08:00,
2013-01-24 23:13:00,13.9,4.0,30.26,WSW,257,0.0,3.0,64,0.00,,,0.00,Wunderground v.1.15,2013-01-25 04:13:00,
2013-01-24 23:18:00,13.9,4.3,30.26,SSW,202,0.0,9.0,65,0.00,,,0.00,Wunderground v.1.15,2013-01-25 04:18:00,
2013-01-24 23:23:00,13.9,4.3,30.26,WSW,253,0.0,8.0,65,0.00,,,0.00,Wunderground v.1.15,2013-01-25 04:23:00,
2013-01-24 23:28:00,13.8,4.2,30.26,NW,304,6.0,13.0,65,0.00,,,0.00,Wunderground v.1.15,2013-01-25 04:28:00,
2013-01-24 23:33:00,13.8,4.2,30.26,WSW,237,0.0,5.0,65,0.00,,,0.00,Wunderground v.1.15,2013-01-25 04:33:00,
2013-01-24 23:38:00,13.7,4.4,30.27,SW,215,0.0,5.0,66,0.00,,,0.00,Wunderground v.1.15,2013-01-25 04:38:00,
2013-01-24 23:43:00,13.7,4.4,30.27,SW,222,0.0,6.0,66,0.00,,,0.00,Wunderground v.1.15,2013-01-25 04:43:00,
2013-01-24 23:48:00,13.7,4.4,30.26,SW,226,0.0,7.0,66,0.00,,,0.00,Wunderground v.1.15,2013-01-25 04:48:00,
2013-01-24 23:53:00,13.7,4.4,30.26,SW,234,0.0,4.0,66,0.00,,,0.00,Wunderground v.1.15,2013-01-25 04:53:00,
2013-01-24 23:58:00,13.7,4.4,30.26,WSW,248,0.0,7.0,66,0.00,,,0.00,Wunderground v.1.15,2013-01-25 04:58:00,